createdAt,value
2023-04-23T00:00:54.891Z,13.90
2023-04-23T00:03:25.115Z,13.90
2023-04-23T00:05:54.395Z,13.90
2023-04-23T00:08:23.532Z,13.80
2023-04-23T00:10:51.966Z,13.80
2023-04-23T00:13:21.742Z,13.80
2023-04-23T00:15:50.068Z,13.70
2023-04-23T00:18:17.953Z,13.80
2023-04-23T00:20:45.859Z,13.70
2023-04-23T00:23:13.729Z,13.70
2023-04-23T00:25:41.614Z,13.70
2023-04-23T00:28:09.532Z,13.60
2023-04-23T00:30:39.025Z,13.60
2023-04-23T00:33:07.433Z,13.60
2023-04-23T00:35:35.876Z,13.70
2023-04-23T00:38:03.829Z,13.60
2023-04-23T00:40:31.914Z,13.70
2023-04-23T00:43:00.253Z,13.60
2023-04-23T00:45:28.159Z,13.70
2023-04-23T00:47:57.776Z,13.60
2023-04-23T00:50:25.780Z,13.50
2023-04-23T00:52:53.671Z,13.50
2023-04-23T00:55:21.869Z,13.50
2023-04-23T00:57:50.059Z,13.50
2023-04-23T01:00:20.310Z,13.50
2023-04-23T01:02:49.609Z,13.50
2023-04-23T01:05:20.480Z,13.50
2023-04-23T01:07:48.597Z,13.30
2023-04-23T01:10:16.498Z,13.30
2023-04-23T01:12:44.381Z,13.30
2023-04-23T01:15:12.519Z,13.30
2023-04-23T01:17:41.279Z,13.30
2023-04-23T01:20:10.300Z,13.30
2023-04-23T01:22:39.681Z,13.30
2023-04-23T01:25:10.239Z,13.30
2023-04-23T01:27:38.736Z,13.20
2023-04-23T01:30:07.783Z,13.10
2023-04-23T01:32:36.332Z,13.00
2023-04-23T01:35:05.446Z,13.10
2023-04-23T01:37:33.939Z,13.10
2023-04-23T01:40:03.419Z,13.10
2023-04-23T01:42:31.313Z,13.10
2023-04-23T01:44:59.203Z,13.10
2023-04-23T01:47:27.717Z,13.10
2023-04-23T01:49:56.157Z,13.10
2023-04-23T01:52:24.247Z,13.10
2023-04-23T01:54:52.586Z,13.10
2023-04-23T01:57:24.164Z,13.10
2023-04-23T01:59:52.123Z,13.10
2023-04-23T02:02:21.052Z,13.10
2023-04-23T02:04:49.960Z,13.10
2023-04-23T02:07:17.806Z,13.10
2023-04-23T02:09:45.990Z,13.10
2023-04-23T02:12:13.934Z,13.20
2023-04-23T02:14:43.500Z,13.20
2023-04-23T02:17:12.377Z,13.30
2023-04-23T02:19:40.736Z,13.40
2023-04-23T02:22:09.294Z,13.40
2023-04-23T02:24:38.858Z,13.40
2023-04-23T02:27:06.785Z,13.30
2023-04-23T02:29:34.735Z,13.30
2023-04-23T02:32:04.234Z,13.30
2023-04-23T02:34:32.165Z,13.30
2023-04-23T02:37:00.024Z,13.20
2023-04-23T02:39:27.894Z,13.20
2023-04-23T02:41:56.297Z,13.10
2023-04-23T02:44:24.303Z,13.10
2023-04-23T02:46:52.509Z,13.20
2023-04-23T02:49:21.736Z,13.20
2023-04-23T02:51:49.687Z,13.10
2023-04-23T02:54:18.026Z,13.00
2023-04-23T02:56:46.355Z,13.00
2023-04-23T02:59:14.874Z,13.00
2023-04-23T03:01:42.761Z,12.90
2023-04-23T03:04:12.945Z,12.90
2023-04-23T03:06:42.661Z,12.90
2023-04-23T03:09:10.780Z,12.80
2023-04-23T03:11:38.756Z,12.80
2023-04-23T03:14:07.402Z,12.80
2023-04-23T03:16:36.151Z,12.80
2023-04-23T03:19:04.033Z,12.70
2023-04-23T03:21:32.050Z,12.70
2023-04-23T03:24:01.251Z,12.60
2023-04-23T03:26:29.121Z,12.60
2023-04-23T03:28:56.984Z,12.60
2023-04-23T03:31:24.885Z,12.60
2023-04-23T03:33:53.790Z,12.60
2023-04-23T03:36:29.308Z,12.60
2023-04-23T03:38:57.301Z,12.60
2023-04-23T03:41:27.186Z,12.60
2023-04-23T03:43:55.083Z,12.60
2023-04-23T03:46:39.338Z,12.60
2023-04-23T03:49:07.591Z,12.60
2023-04-23T03:51:35.539Z,12.60
2023-04-23T03:54:03.413Z,12.60
2023-04-23T03:56:42.580Z,12.60
2023-04-23T03:59:29.382Z,12.60
2023-04-23T04:02:00.428Z,12.60
2023-04-23T04:04:28.410Z,12.60
2023-04-23T04:06:57.710Z,12.60
2023-04-23T04:09:28.637Z,12.60
2023-04-23T04:11:57.865Z,12.60
2023-04-23T04:14:26.013Z,12.60
2023-04-23T04:16:53.903Z,12.60
2023-04-23T04:19:21.820Z,12.60
2023-04-23T04:21:49.706Z,12.60
2023-04-23T04:24:18.189Z,12.60
2023-04-23T04:26:47.578Z,12.60
2023-04-23T04:29:16.819Z,12.60
2023-04-23T04:31:44.734Z,12.60
2023-04-23T04:34:14.701Z,12.70
2023-04-23T04:36:42.989Z,12.60
2023-04-23T04:39:13.514Z,12.70
2023-04-23T04:41:42.648Z,12.70
2023-04-23T04:44:10.488Z,12.70
2023-04-23T04:46:40.636Z,12.70
2023-04-23T04:49:09.459Z,12.50
2023-04-23T04:51:38.343Z,12.50
2023-04-23T04:54:07.225Z,12.50
2023-04-23T04:56:35.324Z,12.50
2023-04-23T04:59:03.967Z,12.50
2023-04-23T05:01:32.448Z,12.50
2023-04-23T05:04:01.890Z,12.50
2023-04-23T05:06:29.923Z,12.50
2023-04-23T05:08:57.804Z,12.50
2023-04-23T05:11:25.892Z,12.60
2023-04-23T05:13:53.963Z,12.50
2023-04-23T05:16:22.113Z,12.40
2023-04-23T05:18:50.038Z,12.40
2023-04-23T05:21:19.704Z,12.50
2023-04-23T05:23:47.652Z,12.50
2023-04-23T05:26:15.570Z,12.50
2023-04-23T05:28:43.408Z,12.60
2023-04-23T05:31:11.385Z,12.60
2023-04-23T05:33:49.209Z,12.80
2023-04-23T05:36:19.957Z,12.80
2023-04-23T05:38:48.284Z,12.80
2023-04-23T05:41:16.610Z,12.70
2023-04-23T05:43:44.829Z,12.80
2023-04-23T05:46:12.721Z,12.70
2023-04-23T05:48:40.580Z,12.70
2023-04-23T05:51:08.884Z,12.70
2023-04-23T05:53:38.140Z,12.70
2023-04-23T05:56:06.620Z,12.70
2023-04-23T05:58:34.507Z,12.70
2023-04-23T06:01:02.902Z,12.70
2023-04-23T06:03:31.162Z,12.90
2023-04-23T06:05:59.414Z,13.10
2023-04-23T06:08:27.357Z,13.30
2023-04-23T06:10:56.844Z,13.30
2023-04-23T06:13:24.783Z,13.20
2023-04-23T06:15:52.727Z,13.00
2023-04-23T06:18:20.586Z,12.80
2023-04-23T06:20:51.376Z,12.70
2023-04-23T06:23:19.270Z,12.70
2023-04-23T06:25:47.131Z,12.50
2023-04-23T06:28:16.535Z,12.40
2023-04-23T06:31:03.851Z,12.30
2023-04-23T06:33:31.864Z,12.30
2023-04-23T06:35:59.691Z,12.30
2023-04-23T06:38:27.649Z,12.20
2023-04-23T06:40:55.846Z,12.10
2023-04-23T06:43:25.265Z,12.00
2023-04-23T06:46:13.424Z,12.10
2023-04-23T06:48:41.264Z,12.20
2023-04-23T06:51:09.160Z,12.50
2023-04-23T06:53:38.567Z,12.70
2023-04-23T06:56:07.756Z,12.80
2023-04-23T06:58:37.510Z,13.00
2023-04-23T07:01:14.209Z,13.20
2023-04-23T07:03:45.193Z,13.30
2023-04-23T07:06:13.290Z,13.50
2023-04-23T07:08:41.429Z,13.50
2023-04-23T07:11:10.606Z,13.50
2023-04-23T07:13:40.139Z,13.80
2023-04-23T07:16:08.467Z,13.80
2023-04-23T07:18:36.347Z,13.80
2023-04-23T07:21:04.412Z,13.80
2023-04-23T07:23:32.269Z,13.60
2023-04-23T07:26:00.258Z,13.50
2023-04-23T07:28:28.178Z,13.30
2023-04-23T07:30:57.822Z,13.20
2023-04-23T07:33:26.394Z,13.20
2023-04-23T07:35:54.280Z,13.20
2023-04-23T07:38:22.234Z,13.10
2023-04-23T07:40:50.425Z,13.20
2023-04-23T07:43:18.368Z,13.30
2023-04-23T07:45:46.303Z,13.50
2023-04-23T07:48:15.713Z,13.80
2023-04-23T07:50:43.699Z,13.90
2023-04-23T07:53:11.608Z,13.90
2023-04-23T07:55:39.509Z,13.90
2023-04-23T07:58:07.515Z,13.80
2023-04-23T08:00:36.636Z,13.90
2023-04-23T08:03:04.887Z,14.00
2023-04-23T08:05:34.188Z,14.00
2023-04-23T08:08:02.117Z,14.10
2023-04-23T08:10:29.972Z,14.10
2023-04-23T08:12:57.899Z,14.00
2023-04-23T08:15:25.817Z,13.90
2023-04-23T08:17:53.768Z,13.80
2023-04-23T08:20:21.729Z,13.80
2023-04-23T08:22:53.632Z,13.90
2023-04-23T08:25:21.833Z,14.00
2023-04-23T08:27:50.033Z,14.10
2023-04-23T08:30:17.957Z,14.30
2023-04-23T08:32:50.018Z,14.80
2023-04-23T08:35:18.162Z,15.30
2023-04-23T08:37:46.594Z,15.60
2023-04-23T08:40:16.781Z,16.60
2023-04-23T08:42:49.992Z,17.30
2023-04-23T08:45:18.652Z,17.50
2023-04-23T08:47:46.570Z,17.20
2023-04-23T08:50:19.808Z,17.00
2023-04-23T08:52:50.716Z,16.60
2023-04-23T08:55:21.179Z,17.10
2023-04-23T08:57:49.848Z,17.00
2023-04-23T09:00:19.867Z,17.00
2023-04-23T09:02:50.378Z,17.10
2023-04-23T09:05:18.665Z,16.60
2023-04-23T09:07:46.767Z,16.20
2023-04-23T09:10:18.240Z,16.40
2023-04-23T09:12:48.134Z,16.60
2023-04-23T09:15:16.652Z,16.50
2023-04-23T09:17:46.332Z,16.20
2023-04-23T09:20:15.501Z,16.10
2023-04-23T09:22:47.111Z,16.10
2023-04-23T09:25:17.358Z,16.30
2023-04-23T09:27:47.438Z,16.00
2023-04-23T09:30:16.250Z,16.20
2023-04-23T09:32:46.948Z,16.00
2023-04-23T09:35:16.646Z,16.10
2023-04-23T09:37:48.315Z,16.40
2023-04-23T09:40:17.661Z,16.80
2023-04-23T09:42:50.866Z,16.40
2023-04-23T09:45:19.236Z,16.10
2023-04-23T09:47:51.837Z,15.50
2023-04-23T09:50:19.997Z,15.40
2023-04-23T09:52:56.038Z,15.70
2023-04-23T09:55:30.736Z,16.40
2023-04-23T09:58:00.403Z,16.50
2023-04-23T10:00:33.045Z,16.70
2023-04-23T10:03:01.769Z,16.70
2023-04-23T10:05:37.275Z,16.60
2023-04-23T10:08:18.240Z,16.50
2023-04-23T10:10:57.257Z,16.30
2023-04-23T10:13:29.832Z,16.60
2023-04-23T10:16:07.208Z,16.10
2023-04-23T10:18:42.677Z,16.00
2023-04-23T10:21:12.452Z,16.30
2023-04-23T10:23:43.946Z,16.20
2023-04-23T10:26:15.147Z,16.80
2023-04-23T10:28:47.848Z,17.40
2023-04-23T10:31:16.152Z,17.70
2023-04-23T10:33:55.896Z,18.30
2023-04-23T10:36:28.206Z,18.50
2023-04-23T10:39:00.780Z,18.60
2023-04-23T10:41:35.509Z,19.10
2023-04-23T10:44:05.845Z,18.60
2023-04-23T10:46:37.106Z,19.10
2023-04-23T10:49:08.475Z,19.80
2023-04-23T10:54:09.895Z,21.40
2023-04-23T10:56:39.840Z,22.40
2023-04-23T10:59:09.782Z,22.60
2023-04-23T11:01:37.772Z,22.90
2023-04-23T11:04:28.750Z,23.50
2023-04-23T11:06:59.137Z,24.00
2023-04-23T11:09:31.697Z,24.50
2023-04-23T11:12:01.385Z,24.40
2023-04-23T11:14:38.329Z,26.00
2023-04-23T11:17:07.319Z,26.80
2023-04-23T11:19:41.729Z,27.50
2023-04-23T11:22:16.749Z,27.50
2023-04-23T11:24:48.229Z,27.30
2023-04-23T11:27:19.728Z,25.60
2023-04-23T11:29:49.060Z,23.50
2023-04-23T11:32:18.172Z,24.30
2023-04-23T11:34:47.457Z,25.40
2023-04-23T11:37:16.371Z,25.20
2023-04-23T11:39:45.930Z,24.40
2023-04-23T11:42:14.519Z,23.80
2023-04-23T11:44:43.949Z,22.60
2023-04-23T11:47:14.845Z,23.10
2023-04-23T11:49:44.698Z,22.50
2023-04-23T11:52:13.727Z,21.60
2023-04-23T11:54:42.740Z,20.50
2023-04-23T11:57:10.993Z,20.30
2023-04-23T11:59:39.080Z,20.20
2023-04-23T12:02:07.057Z,20.40
2023-04-23T12:04:36.971Z,20.40
2023-04-23T12:07:15.986Z,20.10
2023-04-23T12:09:53.525Z,19.40
2023-04-23T12:12:21.932Z,20.30
2023-04-23T12:14:49.818Z,21.70
2023-04-23T12:17:17.699Z,22.20
2023-04-23T12:19:46.933Z,21.50
2023-04-23T12:22:14.953Z,21.30
2023-04-23T12:24:51.370Z,20.80
2023-04-23T12:27:21.949Z,20.60
2023-04-23T12:29:50.824Z,20.80
2023-04-23T12:32:22.797Z,20.40
2023-04-23T12:34:56.787Z,20.20
2023-04-23T12:37:26.974Z,20.40
2023-04-23T12:39:56.626Z,20.90
2023-04-23T12:42:24.941Z,21.10
2023-04-23T12:44:55.707Z,20.80
2023-04-23T12:47:24.051Z,21.00
2023-04-23T12:49:53.344Z,20.30
2023-04-23T12:52:23.071Z,20.20
2023-04-23T12:54:52.675Z,20.30
2023-04-23T12:57:23.122Z,20.80
2023-04-23T12:59:51.490Z,21.30
2023-04-23T13:02:19.462Z,20.90
2023-04-23T13:04:47.424Z,20.00
2023-04-23T13:07:15.509Z,20.20
2023-04-23T13:09:45.029Z,20.50
2023-04-23T13:12:13.274Z,20.60
2023-04-23T13:14:41.481Z,21.30
2023-04-23T13:17:09.334Z,21.30
2023-04-23T13:19:39.670Z,21.70
2023-04-23T13:22:07.802Z,21.70
2023-04-23T13:24:35.798Z,21.60
2023-04-23T13:27:05.157Z,21.40
2023-04-23T13:29:33.526Z,21.30
2023-04-23T13:32:02.133Z,20.70
2023-04-23T13:34:30.776Z,20.10
2023-04-23T13:36:59.191Z,20.00
2023-04-23T13:39:27.205Z,19.70
2023-04-23T13:42:09.155Z,18.90
2023-04-23T13:44:39.294Z,18.90
2023-04-23T13:47:07.182Z,19.90
2023-04-23T13:49:35.108Z,20.40
2023-04-23T13:52:06.645Z,20.10
2023-04-23T13:54:35.514Z,20.10
2023-04-23T13:57:04.007Z,19.70
2023-04-23T13:59:33.095Z,19.60
2023-04-23T14:02:02.298Z,19.50
2023-04-23T14:04:30.226Z,19.90
2023-04-23T14:06:58.140Z,20.50
2023-04-23T14:09:26.079Z,21.20
2023-04-23T14:11:54.016Z,21.30
2023-04-23T14:14:21.895Z,20.70
2023-04-23T14:16:49.766Z,20.20
2023-04-23T14:19:18.988Z,19.90
2023-04-23T14:21:46.934Z,20.00
2023-04-23T14:24:19.491Z,19.30
2023-04-23T14:26:49.811Z,19.30
2023-04-23T14:29:26.400Z,19.30
2023-04-23T14:31:54.448Z,19.20
2023-04-23T14:34:23.661Z,19.70
2023-04-23T14:36:53.246Z,19.80
2023-04-23T14:39:22.657Z,19.90
2023-04-23T14:41:50.719Z,19.90
2023-04-23T14:44:18.678Z,19.70
2023-04-23T14:46:46.795Z,19.70
2023-04-23T14:49:14.715Z,19.10
2023-04-23T14:51:43.969Z,18.40
2023-04-23T14:54:12.086Z,18.30
2023-04-23T14:56:39.953Z,18.30
2023-04-23T14:59:07.816Z,18.00
2023-04-23T15:01:35.733Z,18.00
2023-04-23T15:04:03.734Z,17.90
2023-04-23T15:06:31.675Z,18.10
2023-04-23T15:09:00.945Z,17.90
2023-04-23T15:11:28.962Z,17.40
2023-04-23T15:14:03.529Z,17.50
2023-04-23T15:16:46.891Z,17.20
2023-04-23T15:19:18.178Z,17.10
2023-04-23T15:21:46.846Z,17.20
2023-04-23T15:24:16.764Z,17.20
2023-04-23T15:26:45.729Z,17.00
2023-04-23T15:29:14.107Z,16.90
2023-04-23T15:31:42.617Z,17.00
2023-04-23T15:34:12.025Z,16.90
2023-04-23T15:36:40.030Z,16.70
2023-04-23T15:39:09.107Z,16.50
2023-04-23T15:41:40.781Z,16.80
2023-04-23T15:44:12.358Z,16.90
2023-04-23T15:46:40.762Z,16.70
2023-04-23T15:49:08.832Z,16.90
2023-04-23T15:51:37.164Z,16.90
2023-04-23T15:54:08.373Z,17.30
2023-04-23T15:56:38.155Z,17.20
2023-04-23T15:59:07.631Z,17.00
2023-04-23T16:01:36.154Z,17.40
2023-04-23T16:06:35.368Z,18.60
2023-04-23T16:09:06.554Z,18.70
2023-04-23T16:11:35.182Z,18.20
2023-04-23T16:14:05.830Z,17.50
2023-04-23T16:16:33.885Z,17.30
2023-04-23T16:19:02.561Z,17.20
2023-04-23T16:21:31.224Z,17.20
2023-04-23T16:23:59.129Z,17.00
2023-04-23T16:26:28.382Z,16.80
2023-04-23T16:29:16.814Z,17.10
2023-04-23T16:31:45.720Z,16.90
2023-04-23T16:34:13.690Z,16.90
2023-04-23T16:36:41.686Z,16.80
2023-04-23T16:39:11.110Z,16.80
2023-04-23T16:41:39.043Z,16.90
2023-04-23T16:44:07.034Z,16.80
2023-04-23T16:46:34.938Z,17.00
2023-04-23T16:49:04.288Z,16.90
2023-04-23T16:51:33.037Z,16.80
2023-04-23T16:54:01.047Z,16.60
2023-04-23T16:56:28.994Z,16.40
2023-04-23T16:58:57.369Z,16.30
2023-04-23T17:01:25.341Z,16.30
2023-04-23T17:03:53.523Z,16.20
2023-04-23T17:06:30.693Z,16.20
2023-04-23T17:09:00.365Z,16.20
2023-04-23T17:11:29.608Z,16.10
2023-04-23T17:13:58.500Z,15.90
2023-04-23T17:16:27.327Z,15.90
2023-04-23T17:18:55.774Z,15.80
2023-04-23T17:21:25.860Z,15.80
2023-04-23T17:23:54.129Z,15.60
2023-04-23T17:26:22.028Z,15.50
2023-04-23T17:28:49.965Z,15.50
2023-04-23T17:31:18.883Z,15.50
2023-04-23T17:33:49.300Z,15.30
2023-04-23T17:36:17.870Z,15.30
2023-04-23T17:38:47.126Z,15.50
2023-04-23T17:41:14.982Z,15.50
2023-04-23T17:43:42.944Z,15.50
2023-04-23T17:46:10.880Z,15.50
2023-04-23T17:48:38.921Z,15.50
2023-04-23T17:51:07.189Z,15.40
2023-04-23T17:53:36.365Z,15.40
2023-04-23T17:56:05.735Z,15.30
2023-04-23T17:58:34.813Z,15.20
2023-04-23T18:01:04.011Z,15.10
2023-04-23T18:03:33.010Z,14.90
2023-04-23T18:06:01.081Z,14.80
2023-04-23T18:08:30.184Z,14.90
2023-04-23T18:10:58.253Z,15.00
2023-04-23T18:13:27.506Z,15.10
2023-04-23T18:15:55.441Z,15.10
2023-04-23T18:18:23.323Z,15.10
2023-04-23T18:20:51.806Z,14.90
2023-04-23T18:23:20.566Z,15.00
2023-04-23T18:25:48.690Z,14.80
2023-04-23T18:28:17.004Z,14.70
2023-04-23T18:30:46.343Z,14.40
2023-04-23T18:33:30.647Z,14.30
2023-04-23T18:36:03.730Z,14.20
2023-04-23T18:38:37.546Z,14.20
2023-04-23T18:41:05.859Z,14.20
2023-04-23T18:43:34.312Z,14.20
2023-04-23T18:46:03.861Z,14.10
2023-04-23T18:48:52.374Z,14.30
2023-04-23T18:51:24.036Z,14.50
2023-04-23T18:53:51.949Z,14.50
2023-04-23T18:56:19.861Z,14.50
2023-04-23T18:58:47.826Z,14.50
2023-04-23T19:01:17.118Z,14.40
2023-04-23T19:03:45.127Z,14.30
2023-04-23T19:06:13.297Z,14.20
2023-04-23T19:08:42.356Z,14.00
2023-04-23T19:11:10.264Z,13.70
2023-04-23T19:13:38.136Z,13.40
2023-04-23T19:16:06.264Z,13.30
2023-04-23T19:18:35.563Z,13.10
2023-04-23T19:21:04.478Z,12.90
2023-04-23T19:23:32.373Z,12.70
2023-04-23T19:26:00.252Z,12.50
2023-04-23T19:28:28.204Z,12.40
2023-04-23T19:30:56.219Z,12.30
2023-04-23T19:33:28.141Z,12.20
2023-04-23T19:36:06.610Z,12.20
2023-04-23T19:38:34.478Z,12.10
2023-04-23T19:41:02.328Z,12.10
2023-04-23T19:43:30.322Z,12.10
2023-04-23T19:45:58.142Z,12.00
2023-04-23T19:48:26.067Z,11.90
2023-04-23T19:50:55.346Z,11.80
2023-04-23T19:53:24.570Z,11.70
2023-04-23T19:55:52.449Z,11.70
2023-04-23T19:58:20.545Z,11.80
2023-04-23T20:00:48.510Z,11.70
2023-04-23T20:03:16.526Z,11.70
2023-04-23T20:05:46.087Z,11.60
2023-04-23T20:08:25.469Z,11.60
2023-04-23T20:10:55.037Z,11.60
2023-04-23T20:13:23.646Z,11.60
2023-04-23T20:15:53.616Z,11.60
2023-04-23T20:18:22.140Z,11.60
2023-04-23T20:20:50.060Z,11.60
2023-04-23T20:23:17.927Z,11.60
2023-04-23T20:25:45.969Z,11.60
2023-04-23T20:28:15.251Z,11.60
2023-04-23T20:30:43.126Z,11.60
2023-04-23T20:33:11.359Z,11.50
2023-04-23T20:35:41.823Z,11.50
2023-04-23T20:38:09.745Z,11.40
2023-04-23T20:40:37.735Z,11.30
2023-04-23T20:43:05.625Z,11.20
2023-04-23T20:45:36.090Z,11.10
2023-04-23T20:48:04.096Z,11.10
2023-04-23T20:50:32.669Z,11.10
2023-04-23T20:53:00.607Z,11.10
2023-04-23T20:55:28.614Z,11.10
2023-04-23T20:57:56.461Z,11.00
2023-04-23T21:00:24.902Z,11.10
2023-04-23T21:02:54.470Z,11.10
2023-04-23T21:05:22.566Z,11.00
2023-04-23T21:07:50.710Z,11.00
2023-04-23T21:10:18.748Z,11.10
2023-04-23T21:12:47.047Z,11.10
2023-04-23T21:15:16.727Z,11.10
2023-04-23T21:17:44.699Z,11.10
2023-04-23T21:20:14.033Z,11.10
2023-04-23T21:22:41.865Z,11.00
2023-04-23T21:25:10.402Z,11.10
2023-04-23T21:27:38.483Z,11.00
2023-04-23T21:30:13.830Z,11.00
2023-04-23T21:32:41.712Z,11.00
2023-04-23T21:35:10.465Z,10.90
2023-04-23T21:37:39.685Z,10.90
2023-04-23T21:40:10.355Z,10.90
2023-04-23T21:42:38.388Z,10.90
2023-04-23T21:45:07.626Z,10.90
2023-04-23T21:47:35.537Z,10.90
2023-04-23T21:50:05.096Z,10.90
2023-04-23T21:52:33.108Z,10.80
2023-04-23T21:55:02.347Z,10.80
2023-04-23T21:57:30.193Z,10.80
2023-04-23T21:59:58.125Z,10.80
2023-04-23T22:02:26.283Z,10.80
2023-04-23T22:04:54.317Z,10.80
2023-04-23T22:07:22.188Z,10.80
2023-04-23T22:09:50.068Z,10.80
2023-04-23T22:12:19.257Z,10.80
2023-04-23T22:14:47.265Z,10.90
2023-04-23T22:17:15.174Z,10.90
2023-04-23T22:19:43.303Z,11.00
2023-04-23T22:22:11.319Z,11.00
2023-04-23T22:24:39.166Z,11.00
2023-04-23T22:27:07.019Z,11.10
2023-04-23T22:29:36.504Z,11.00
2023-04-23T22:32:04.443Z,11.10
2023-04-23T22:34:32.348Z,11.00
2023-04-23T22:37:00.402Z,11.00
2023-04-23T22:39:28.347Z,11.00
2023-04-23T22:41:56.796Z,11.00
2023-04-23T22:44:24.673Z,11.00
2023-04-23T22:46:53.978Z,11.00
2023-04-23T22:49:21.888Z,11.00
2023-04-23T22:51:50.544Z,10.90
2023-04-23T22:54:18.543Z,11.00
2023-04-23T22:56:46.625Z,10.90
2023-04-23T22:59:14.501Z,10.90
2023-04-23T23:01:42.569Z,10.90
2023-04-23T23:04:12.873Z,10.90
2023-04-23T23:06:41.375Z,10.80
2023-04-23T23:09:09.942Z,10.80
2023-04-23T23:11:37.939Z,10.80
2023-04-23T23:14:06.118Z,10.80
2023-04-23T23:16:34.000Z,10.70
2023-04-23T23:19:01.851Z,10.70
2023-04-23T23:21:32.322Z,10.70
2023-04-23T23:24:00.206Z,10.60
2023-04-23T23:26:28.775Z,10.50
2023-04-23T23:28:56.601Z,10.50
2023-04-23T23:31:25.752Z,10.40
2023-04-23T23:33:54.042Z,10.40
2023-04-23T23:36:21.921Z,10.40
2023-04-23T23:38:52.752Z,10.30
2023-04-23T23:41:20.965Z,10.30
2023-04-23T23:43:48.830Z,10.30
2023-04-23T23:46:18.264Z,10.30
2023-04-23T23:48:46.593Z,10.40
2023-04-23T23:51:14.710Z,10.30
2023-04-23T23:53:42.681Z,10.30
2023-04-23T23:56:11.895Z,10.30
2023-04-23T23:58:39.791Z,10.30
